createdAt,value
2023-05-13T00:02:28.515Z,100864.63
2023-05-13T00:04:57.976Z,100873.34
2023-05-13T00:07:26.507Z,100870.69
2023-05-13T00:09:55.521Z,100864.53
2023-05-13T00:12:23.935Z,100863.69
2023-05-13T00:14:52.969Z,100875.16
2023-05-13T00:17:21.430Z,100868.84
2023-05-13T00:19:50.110Z,100877.00
2023-05-13T00:22:18.525Z,100871.66
2023-05-13T00:24:47.228Z,100878.66
2023-05-13T00:27:15.590Z,100869.84
2023-05-13T00:29:44.729Z,100864.53
2023-05-13T00:32:13.063Z,100868.13
2023-05-13T00:34:42.489Z,100862.81
2023-05-13T00:37:11.631Z,100863.81
2023-05-13T00:39:40.316Z,100863.69
2023-05-13T00:42:11.518Z,100868.13
2023-05-13T00:44:41.086Z,100880.50
2023-05-13T00:47:11.513Z,100878.66
2023-05-13T00:49:40.260Z,100872.63
2023-05-13T00:52:08.641Z,100877.84
2023-05-13T00:54:37.333Z,100867.69
2023-05-13T00:57:05.966Z,100879.06
2023-05-13T00:59:34.716Z,100882.16
2023-05-13T01:02:23.218Z,100878.66
2023-05-13T01:05:07.360Z,100877.84
2023-05-13T01:07:57.704Z,100881.44
2023-05-13T01:10:51.992Z,100886.78
2023-05-13T01:13:32.011Z,100890.44
2023-05-13T01:16:13.626Z,100890.44
2023-05-13T01:18:46.648Z,100879.78
2023-05-13T01:21:15.317Z,100877.34
2023-05-13T01:23:43.671Z,100881.44
2023-05-13T01:26:12.787Z,100867.69
2023-05-13T01:28:41.125Z,100870.47
2023-05-13T01:31:11.153Z,100874.44
2023-05-13T01:33:39.848Z,100869.25
2023-05-13T01:36:09.222Z,100869.38
2023-05-13T01:38:40.384Z,100859.72
2023-05-13T01:41:09.143Z,100866.72
2023-05-13T01:43:38.507Z,100871.06
2023-05-13T01:46:13.354Z,100871.91
2023-05-13T01:48:41.864Z,100877.25
2023-05-13T01:51:10.749Z,100876.41
2023-05-13T01:53:39.114Z,100857.56
2023-05-13T01:56:11.154Z,100869.38
2023-05-13T01:58:39.470Z,100874.69
2023-05-13T02:01:08.168Z,100877.34
2023-05-13T02:03:37.370Z,100866.72
2023-05-13T02:06:06.544Z,100877.25
2023-05-13T02:08:35.021Z,100871.06
2023-05-13T02:11:03.659Z,100870.25
2023-05-13T02:13:32.056Z,100871.06
2023-05-13T02:16:01.020Z,100855.22
2023-05-13T02:18:29.359Z,100856.47
2023-05-13T02:20:58.024Z,100852.69
2023-05-13T02:23:26.346Z,100859.72
2023-05-13T02:25:55.016Z,100855.47
2023-05-13T02:28:23.405Z,100859.72
2023-05-13T02:30:52.346Z,100860.66
2023-05-13T02:33:20.645Z,100848.34
2023-05-13T02:35:49.627Z,100859.00
2023-05-13T02:38:17.953Z,100859.00
2023-05-13T02:40:46.635Z,100858.00
2023-05-13T02:43:15.089Z,100856.34
2023-05-13T02:45:51.814Z,100859.13
2023-05-13T02:48:20.158Z,100849.69
2023-05-13T02:50:49.013Z,100861.66
2023-05-13T02:53:17.531Z,100858.13
2023-05-13T02:55:54.529Z,100860.78
2023-05-13T02:58:26.536Z,100866.28
2023-05-13T03:00:56.265Z,100851.38
2023-05-13T03:03:26.654Z,100852.88
2023-05-13T03:05:55.556Z,100849.69
2023-05-13T03:08:23.989Z,100862.88
2023-05-13T03:10:52.926Z,100854.91
2023-05-13T03:13:21.249Z,100860.22
2023-05-13T03:15:49.898Z,100861.06
2023-05-13T03:18:18.398Z,100850.81
2023-05-13T03:20:47.130Z,100862.88
2023-05-13T03:23:15.563Z,100863.72
2023-05-13T03:25:46.809Z,100862.88
2023-05-13T03:28:15.337Z,100852.72
2023-05-13T03:30:46.286Z,100860.34
2023-05-13T03:33:18.851Z,100861.19
2023-05-13T03:35:50.146Z,100854.09
2023-05-13T03:38:22.803Z,100867.63
2023-05-13T03:40:53.370Z,100866.78
2023-05-13T03:43:21.877Z,100875.50
2023-05-13T03:45:56.881Z,100873.78
2023-05-13T03:48:25.770Z,100868.47
2023-05-13T03:50:56.685Z,100876.56
2023-05-13T03:53:26.025Z,100878.28
2023-05-13T03:55:56.535Z,100885.41
2023-05-13T03:58:25.026Z,100877.44
2023-05-13T04:00:53.965Z,100890.75
2023-05-13T04:03:23.667Z,100890.75
2023-05-13T04:05:53.452Z,100892.53
2023-05-13T04:08:21.979Z,100891.59
2023-05-13T04:10:51.469Z,100884.66
2023-05-13T04:13:20.683Z,100894.38
2023-05-13T04:15:49.456Z,100891.69
2023-05-13T04:18:17.891Z,100890.28
2023-05-13T04:20:46.885Z,100911.28
2023-05-13T04:23:15.436Z,100913.84
2023-05-13T04:25:44.164Z,100912.03
2023-05-13T04:28:12.632Z,100908.50
2023-05-13T04:30:44.417Z,100909.75
2023-05-13T04:33:13.107Z,100921.69
2023-05-13T04:35:45.205Z,100935.00
2023-05-13T04:38:14.588Z,100936.72
2023-05-13T04:40:45.256Z,100941.19
2023-05-13T04:43:16.369Z,100935.84
2023-05-13T04:45:53.130Z,100942.28
2023-05-13T04:48:21.961Z,100939.38
2023-05-13T04:50:51.398Z,100946.38
2023-05-13T04:53:20.582Z,100935.84
2023-05-13T04:55:50.725Z,100947.38
2023-05-13T04:58:19.187Z,100957.03
2023-05-13T05:00:48.033Z,100953.66
2023-05-13T05:03:16.629Z,100958.38
2023-05-13T05:05:45.427Z,100961.63
2023-05-13T05:08:16.835Z,100973.84
2023-05-13T05:10:46.966Z,100968.19
2023-05-13T05:13:16.556Z,100976.66
2023-05-13T05:15:46.801Z,100990.44
2023-05-13T05:18:16.761Z,100989.72
2023-05-13T05:20:49.014Z,100979.78
2023-05-13T05:23:20.706Z,100983.91
2023-05-13T05:25:55.339Z,100984.88
2023-05-13T05:28:35.365Z,100990.09
2023-05-13T05:31:04.820Z,100996.13
2023-05-13T05:33:34.823Z,101000.63
2023-05-13T05:36:03.858Z,100998.66
2023-05-13T05:38:32.583Z,100999.41
2023-05-13T05:41:03.303Z,101005.56
2023-05-13T05:43:32.016Z,101000.22
2023-05-13T05:46:01.112Z,101004.72
2023-05-13T05:48:29.806Z,101007.22
2023-05-13T05:50:58.831Z,101013.41
2023-05-13T05:53:32.200Z,101012.56
2023-05-13T05:56:02.660Z,101010.66
2023-05-13T05:58:32.512Z,101010.66
2023-05-13T06:01:01.634Z,101014.03
2023-05-13T06:03:30.323Z,101024.69
2023-05-13T06:06:00.699Z,101020.31
2023-05-13T06:08:31.260Z,101025.50
2023-05-13T06:11:00.445Z,101016.53
2023-05-13T06:13:29.167Z,101015.69
2023-05-13T06:15:58.226Z,101027.19
2023-05-13T06:18:27.244Z,101028.06
2023-05-13T06:20:56.487Z,101027.19
2023-05-13T06:23:25.303Z,101028.91
2023-05-13T06:25:55.068Z,101018.25
2023-05-13T06:28:23.764Z,101026.13
2023-05-13T06:30:53.997Z,101020.63
2023-05-13T06:33:22.999Z,101031.19
2023-05-13T06:35:53.603Z,101022.22
2023-05-13T06:38:23.864Z,101020.41
2023-05-13T06:40:57.177Z,101019.44
2023-05-13T06:43:32.851Z,101014.84
2023-05-13T06:46:09.891Z,101014.69
2023-05-13T06:48:38.420Z,101018.06
2023-05-13T06:51:07.334Z,101018.94
2023-05-13T06:53:35.724Z,101023.41
2023-05-13T06:56:04.843Z,101013.00
2023-05-13T06:58:33.236Z,101023.41
2023-05-13T07:01:02.453Z,101019.06
2023-05-13T07:03:31.053Z,101022.44
2023-05-13T07:05:59.651Z,101021.44
2023-05-13T07:08:28.040Z,101022.31
2023-05-13T07:10:56.660Z,101025.72
2023-05-13T07:13:25.179Z,101012.91
2023-05-13T07:15:53.796Z,101017.13
2023-05-13T07:18:22.170Z,101014.22
2023-05-13T07:20:50.860Z,101015.06
2023-05-13T07:23:19.147Z,101016.72
2023-05-13T07:25:47.960Z,101022.91
2023-05-13T07:28:16.349Z,101013.00
2023-05-13T07:30:45.045Z,101020.00
2023-05-13T07:33:13.722Z,101022.78
2023-05-13T07:35:42.455Z,101019.03
2023-05-13T07:38:11.701Z,101024.22
2023-05-13T07:40:40.844Z,101019.19
2023-05-13T07:43:10.234Z,101024.91
2023-05-13T07:45:39.490Z,101022.81
2023-05-13T07:48:10.248Z,101015.78
2023-05-13T07:50:39.453Z,101017.03
2023-05-13T07:53:08.158Z,101021.19
2023-05-13T07:55:37.450Z,101009.06
2023-05-13T07:58:06.755Z,101021.19
2023-05-13T08:00:35.700Z,101014.91
2023-05-13T08:03:04.515Z,101019.50
2023-05-13T08:05:33.136Z,101019.00
2023-05-13T08:08:02.065Z,101019.00
2023-05-13T08:10:30.938Z,101017.31
2023-05-13T08:13:01.115Z,101020.31
2023-05-13T08:15:30.135Z,101022.38
2023-05-13T08:17:58.614Z,101015.38
2023-05-13T08:20:30.142Z,101006.88
2023-05-13T08:22:58.876Z,101011.38
2023-05-13T08:25:27.674Z,101013.22
2023-05-13T08:27:57.245Z,101017.06
2023-05-13T08:30:25.738Z,101009.31
2023-05-13T08:32:54.081Z,100999.63
2023-05-13T08:35:23.168Z,101007.50
2023-05-13T08:37:51.775Z,101005.31
2023-05-13T08:40:21.400Z,101007.00
2023-05-13T08:42:50.283Z,100996.22
2023-05-13T08:45:18.911Z,101000.56
2023-05-13T08:48:02.292Z,100998.78
2023-05-13T08:50:31.350Z,100995.75
2023-05-13T08:53:02.589Z,100992.97
2023-05-13T08:55:31.263Z,100991.50
2023-05-13T08:57:59.627Z,100990.78
2023-05-13T09:00:28.288Z,100984.59
2023-05-13T09:02:56.687Z,100984.59
2023-05-13T09:05:25.588Z,100999.72
2023-05-13T09:07:54.960Z,100987.84
2023-05-13T09:10:23.776Z,100988.94
2023-05-13T09:12:53.725Z,100991.72
2023-05-13T09:15:24.485Z,100995.47
2023-05-13T09:17:55.426Z,100983.84
2023-05-13T09:20:26.191Z,100987.72
2023-05-13T09:23:05.943Z,100988.47
2023-05-13T09:25:35.973Z,100981.19
2023-05-13T09:28:08.549Z,100988.13
2023-05-13T09:30:40.266Z,100985.66
2023-05-13T09:33:12.423Z,100993.97
2023-05-13T09:35:45.965Z,100986.81
2023-05-13T09:38:22.277Z,100991.31
2023-05-13T09:40:58.042Z,100986.09
2023-05-13T09:43:28.123Z,100984.31
2023-05-13T09:45:58.359Z,100991.19
2023-05-13T09:48:29.094Z,100987.44
2023-05-13T09:50:58.575Z,100979.19
2023-05-13T09:53:27.483Z,100974.38
2023-05-13T09:55:57.734Z,100993.47
2023-05-13T09:58:28.688Z,100984.53
2023-05-13T10:00:57.932Z,100983.69
2023-05-13T10:03:26.457Z,100960.00
2023-05-13T10:05:55.442Z,100974.91
2023-05-13T10:08:23.881Z,100971.91
2023-05-13T10:10:55.796Z,100972.25
2023-05-13T10:13:25.015Z,100973.81
2023-05-13T10:15:55.598Z,100970.28
2023-05-13T10:18:24.485Z,100969.81
2023-05-13T10:20:53.925Z,100965.72
2023-05-13T10:23:24.643Z,100975.00
2023-05-13T10:25:54.605Z,100974.50
2023-05-13T10:28:23.091Z,100970.28
2023-05-13T10:30:52.024Z,100973.94
2023-05-13T10:33:21.226Z,100966.81
2023-05-13T10:36:20.032Z,100969.81
2023-05-13T10:39:00.184Z,100965.16
2023-05-13T10:42:09.929Z,100947.66
2023-05-13T10:44:38.306Z,100952.59
2023-05-13T10:47:09.857Z,100941.91
2023-05-13T10:49:39.719Z,100940.66
2023-05-13T10:52:12.121Z,100946.72
2023-05-13T10:54:42.348Z,100935.81
2023-05-13T10:57:11.199Z,100934.47
2023-05-13T11:00:01.666Z,100928.84
2023-05-13T11:02:32.693Z,100926.19
2023-05-13T11:05:01.314Z,100933.34
2023-05-13T11:07:30.051Z,100925.72
2023-05-13T11:09:59.944Z,100931.84
2023-05-13T11:12:28.541Z,100921.38
2023-05-13T11:14:57.082Z,100921.78
2023-05-13T11:17:26.194Z,100919.69
2023-05-13T11:19:56.674Z,100923.66
2023-05-13T11:22:25.582Z,100922.69
2023-05-13T11:25:10.415Z,100921.56
2023-05-13T11:27:42.702Z,100903.84
2023-05-13T11:30:26.998Z,100914.69
2023-05-13T11:32:59.777Z,100896.34
2023-05-13T11:35:29.996Z,100892.97
2023-05-13T11:38:03.030Z,100895.38
2023-05-13T11:40:36.770Z,100905.66
2023-05-13T11:43:08.103Z,100894.97
2023-05-13T11:45:40.055Z,100895.69
2023-05-13T11:48:22.532Z,100898.34
2023-05-13T11:50:52.369Z,100892.59
2023-05-13T11:53:24.109Z,100886.56
2023-05-13T11:55:52.444Z,100894.56
2023-05-13T11:58:21.783Z,100893.75
2023-05-13T12:00:50.158Z,100895.88
2023-05-13T12:03:19.609Z,100904.88
2023-05-13T12:05:49.393Z,100897.94
2023-05-13T12:08:18.212Z,100896.16
2023-05-13T12:10:46.704Z,100889.13
2023-05-13T12:13:15.410Z,100877.09
2023-05-13T12:15:43.967Z,100884.06
2023-05-13T12:18:13.370Z,100866.13
2023-05-13T12:20:41.805Z,100870.94
2023-05-13T12:23:12.130Z,100855.41
2023-05-13T12:25:48.665Z,100854.94
2023-05-13T12:28:25.350Z,100844.06
2023-05-13T12:31:01.460Z,100850.31
2023-05-13T12:33:41.108Z,100849.84
2023-05-13T12:36:34.109Z,100850.44
2023-05-13T12:39:06.720Z,100856.34
2023-05-13T12:41:41.097Z,100859.59
2023-05-13T12:44:16.221Z,100859.03
2023-05-13T12:46:54.791Z,100862.69
2023-05-13T12:49:24.045Z,100861.00
2023-05-13T12:51:52.663Z,100875.03
2023-05-13T12:54:21.929Z,100866.50
2023-05-13T12:56:50.507Z,100881.50
2023-05-13T12:59:19.413Z,100877.63
2023-05-13T13:01:49.999Z,100867.78
2023-05-13T13:04:19.356Z,100867.91
2023-05-13T13:06:48.189Z,100867.22
2023-05-13T13:09:16.937Z,100865.94
2023-05-13T13:11:45.343Z,100866.66
2023-05-13T13:14:14.148Z,100867.78
2023-05-13T13:16:43.008Z,100870.41
2023-05-13T13:19:11.964Z,100863.25
2023-05-13T13:21:40.440Z,100863.00
2023-05-13T13:24:09.262Z,100852.91
2023-05-13T13:26:37.670Z,100856.41
2023-05-13T13:29:06.419Z,100856.00
2023-05-13T13:31:35.038Z,100853.44
2023-05-13T13:34:05.351Z,100851.81
2023-05-13T13:36:33.867Z,100863.19
2023-05-13T13:39:02.680Z,100856.69
2023-05-13T13:41:31.150Z,100858.25
2023-05-13T13:43:59.839Z,100839.16
2023-05-13T13:46:28.318Z,100849.53
2023-05-13T13:48:57.136Z,100855.72
2023-05-13T13:51:25.757Z,100846.84
2023-05-13T13:53:54.558Z,100849.53
2023-05-13T13:56:23.129Z,100840.81
2023-05-13T13:58:51.884Z,100839.72
2023-05-13T14:01:20.964Z,100840.00
2023-05-13T14:03:53.595Z,100827.47
2023-05-13T14:06:22.264Z,100848.97
2023-05-13T14:08:52.011Z,100851.78
2023-05-13T14:11:20.995Z,100843.03
2023-05-13T14:13:49.690Z,100848.63
2023-05-13T14:16:18.099Z,100834.59
2023-05-13T14:18:46.979Z,100829.13
2023-05-13T14:21:15.391Z,100841.88
2023-05-13T14:23:44.310Z,100841.88
2023-05-13T14:26:15.540Z,100841.88
2023-05-13T14:28:44.504Z,100829.94
2023-05-13T14:31:13.175Z,100839.75
2023-05-13T14:33:42.072Z,100829.34
2023-05-13T14:36:11.566Z,100826.69
2023-05-13T14:38:40.525Z,100834.56
2023-05-13T14:41:09.077Z,100834.84
2023-05-13T14:43:37.847Z,100830.59
2023-05-13T14:46:06.541Z,100836.06
2023-05-13T14:48:35.575Z,100839.03
2023-05-13T14:51:04.287Z,100851.50
2023-05-13T14:53:32.998Z,100853.94
2023-05-13T14:56:01.426Z,100853.50
2023-05-13T14:58:30.254Z,100853.50
2023-05-13T15:00:59.006Z,100856.00
2023-05-13T15:03:27.839Z,100854.97
2023-05-13T15:05:57.435Z,100848.84
2023-05-13T15:08:26.231Z,100859.72
2023-05-13T15:10:55.007Z,100862.25
2023-05-13T15:13:24.950Z,100859.50
2023-05-13T15:15:53.507Z,100852.22
2023-05-13T15:18:22.252Z,100854.47
2023-05-13T15:20:50.722Z,100849.84
2023-05-13T15:23:19.502Z,100869.66
2023-05-13T15:25:48.599Z,100874.72
2023-05-13T15:28:17.377Z,100887.91
2023-05-13T15:30:45.865Z,100886.34
2023-05-13T15:33:14.711Z,100903.03
2023-05-13T15:35:43.864Z,100905.41
2023-05-13T15:38:12.899Z,100912.66
2023-05-13T15:40:44.730Z,100913.31
2023-05-13T15:43:15.161Z,100909.16
2023-05-13T15:45:44.395Z,100901.16
2023-05-13T15:48:13.289Z,100902.28
2023-05-13T15:50:42.267Z,100890.50
2023-05-13T15:53:11.554Z,100894.84
2023-05-13T15:55:40.286Z,100900.75
2023-05-13T15:58:09.218Z,100897.25
2023-05-13T16:00:37.667Z,100895.97
2023-05-13T16:03:06.417Z,100898.09
2023-05-13T16:05:36.499Z,100902.47
2023-05-13T16:08:05.714Z,100907.53
2023-05-13T16:10:36.088Z,100904.03
2023-05-13T16:13:13.884Z,100909.59
2023-05-13T16:15:42.299Z,100910.19
2023-05-13T16:18:11.101Z,100905.84
2023-05-13T16:20:39.538Z,100899.81
2023-05-13T16:23:08.905Z,100900.41
2023-05-13T16:25:38.756Z,100890.56
2023-05-13T16:28:07.422Z,100900.41
2023-05-13T16:30:37.892Z,100889.75
2023-05-13T16:33:09.816Z,100889.59
2023-05-13T16:35:40.308Z,100873.16
2023-05-13T16:38:09.157Z,100885.97
2023-05-13T16:40:37.689Z,100882.31
2023-05-13T16:43:06.465Z,100879.91
2023-05-13T16:45:35.036Z,100865.31
2023-05-13T16:48:04.940Z,100869.28
2023-05-13T16:50:33.446Z,100858.63
2023-05-13T16:53:02.393Z,100854.25
2023-05-13T16:55:32.018Z,100855.25
2023-05-13T16:58:01.678Z,100854.41
2023-05-13T17:00:30.560Z,100855.47
2023-05-13T17:02:59.486Z,100848.59
2023-05-13T17:05:27.930Z,100838.78
2023-05-13T17:07:56.683Z,100842.28
2023-05-13T17:10:25.274Z,100837.84
2023-05-13T17:12:54.074Z,100829.13
2023-05-13T17:15:23.014Z,100821.63
2023-05-13T17:17:51.746Z,100824.06
2023-05-13T17:20:20.714Z,100820.56
2023-05-13T17:22:49.508Z,100823.59
2023-05-13T17:25:18.061Z,100825.41
2023-05-13T17:27:46.857Z,100819.56
2023-05-13T17:30:16.232Z,100819.44
2023-05-13T17:32:45.714Z,100817.50
2023-05-13T17:35:14.246Z,100813.88
2023-05-13T17:37:43.020Z,100804.16
2023-05-13T17:40:12.177Z,100805.16
2023-05-13T17:42:41.089Z,100811.72
2023-05-13T17:45:10.157Z,100815.88
2023-05-13T17:47:38.958Z,100818.13
2023-05-13T17:50:08.282Z,100809.72
2023-05-13T17:52:37.004Z,100810.94
2023-05-13T17:55:06.843Z,100811.50
2023-05-13T17:57:35.929Z,100819.50
2023-05-13T18:00:07.037Z,100817.75
2023-05-13T18:02:37.156Z,100840.34
2023-05-13T18:05:10.041Z,100839.88
2023-05-13T18:07:38.948Z,100834.56
2023-05-13T18:10:08.468Z,100848.59
2023-05-13T18:12:37.352Z,100852.47
2023-05-13T18:15:06.879Z,100853.41
2023-05-13T18:17:36.071Z,100876.34
2023-05-13T18:20:05.445Z,100873.88
2023-05-13T18:22:35.102Z,100871.66
2023-05-13T18:25:04.097Z,100868.97
2023-05-13T18:27:33.053Z,100867.31
2023-05-13T18:30:01.622Z,100863.78
2023-05-13T18:32:30.786Z,100858.59
2023-05-13T18:34:59.961Z,100865.59
2023-05-13T18:37:30.156Z,100869.47
2023-05-13T18:39:59.359Z,100861.63
2023-05-13T18:42:28.776Z,100866.59
2023-05-13T18:44:57.222Z,100878.91
2023-05-13T18:47:26.612Z,100874.28
2023-05-13T18:49:56.240Z,100879.63
2023-05-13T18:52:26.271Z,100885.28
2023-05-13T18:54:54.690Z,100886.69
2023-05-13T18:57:24.037Z,100893.59
2023-05-13T18:59:52.967Z,100900.72
2023-05-13T19:02:22.132Z,100894.31
2023-05-13T19:04:51.392Z,100899.66
2023-05-13T19:07:21.917Z,100898.94
2023-05-13T19:09:51.547Z,100904.97
2023-05-13T19:12:20.395Z,100909.31
2023-05-13T19:14:49.055Z,100901.31
2023-05-13T19:17:18.004Z,100917.06
2023-05-13T19:19:46.603Z,100917.06
2023-05-13T19:22:15.333Z,100922.78
2023-05-13T19:24:44.425Z,100934.25
2023-05-13T19:27:13.679Z,100939.31
2023-05-13T19:29:42.143Z,100942.69
2023-05-13T19:32:11.551Z,100941.75
2023-05-13T19:34:41.164Z,100944.41
2023-05-13T19:37:09.954Z,100951.56
2023-05-13T19:39:38.467Z,100943.81
2023-05-13T19:42:07.312Z,100957.13
2023-05-13T19:44:36.005Z,100948.66
2023-05-13T19:47:06.633Z,100957.97
2023-05-13T19:49:36.437Z,100958.81
2023-05-13T19:52:05.927Z,100959.06
2023-05-13T19:54:35.052Z,100962.56
2023-05-13T19:57:04.508Z,100959.91
2023-05-13T19:59:33.394Z,100948.41
2023-05-13T20:02:02.858Z,100952.91
2023-05-13T20:04:31.666Z,100968.03
2023-05-13T20:07:00.412Z,100965.00
2023-05-13T20:09:29.050Z,100964.38
2023-05-13T20:12:02.140Z,100964.28
2023-05-13T20:14:48.184Z,100961.84
2023-05-13T20:17:19.377Z,100953.84
2023-05-13T20:19:49.251Z,100956.41
2023-05-13T20:22:19.129Z,100946.84
2023-05-13T20:24:49.370Z,100953.41
2023-05-13T20:27:18.762Z,100959.19
2023-05-13T20:29:49.356Z,100958.09
2023-05-13T20:32:21.750Z,100957.25
2023-05-13T20:34:52.188Z,100955.44
2023-05-13T20:37:24.036Z,100949.13
2023-05-13T20:39:53.017Z,100950.47
2023-05-13T20:42:22.985Z,100947.22
2023-05-13T20:44:54.055Z,100959.19
2023-05-13T20:47:23.181Z,100953.97
2023-05-13T20:49:51.863Z,100957.25
2023-05-13T20:52:22.426Z,100946.84
2023-05-13T20:54:51.215Z,100952.91
2023-05-13T20:57:20.307Z,100950.69
2023-05-13T20:59:50.760Z,100945.34
2023-05-13T21:02:19.934Z,100942.84
2023-05-13T21:04:48.713Z,100935.81
2023-05-13T21:07:17.797Z,100936.66
2023-05-13T21:09:46.644Z,100939.31
2023-05-13T21:12:15.789Z,100933.75
2023-05-13T21:14:44.577Z,100929.16
2023-05-13T21:17:13.680Z,100925.50
2023-05-13T21:19:42.453Z,100929.16
2023-05-13T21:22:11.562Z,100910.75
2023-05-13T21:24:40.367Z,100923.69
2023-05-13T21:27:09.602Z,100917.38
2023-05-13T21:29:38.394Z,100924.66
2023-05-13T21:32:07.638Z,100925.50
2023-05-13T21:34:36.427Z,100922.81
2023-05-13T21:37:06.229Z,100915.72
2023-05-13T21:39:34.890Z,100906.84
2023-05-13T21:42:04.592Z,100911.22
2023-05-13T21:44:33.294Z,100909.50
2023-05-13T21:47:02.367Z,100910.50
2023-05-13T21:49:31.044Z,100904.69
2023-05-13T21:52:00.021Z,100908.69
2023-05-13T21:54:28.777Z,100904.34
2023-05-13T21:56:57.862Z,100912.31
2023-05-13T21:59:26.655Z,100899.38
2023-05-13T22:01:55.858Z,100908.78
2023-05-13T22:04:26.533Z,100913.16
2023-05-13T22:06:55.954Z,100908.69
2023-05-13T22:09:24.733Z,100902.38
2023-05-13T22:11:54.112Z,100900.69
2023-05-13T22:14:22.758Z,100891.28
2023-05-13T22:17:07.156Z,100888.22
2023-05-13T22:19:37.767Z,100895.34
2023-05-13T22:22:06.968Z,100888.22
2023-05-13T22:24:36.050Z,100879.78
2023-05-13T22:27:05.386Z,100890.03
2023-05-13T22:29:34.113Z,100886.53
2023-05-13T22:32:03.303Z,100882.88
2023-05-13T22:34:32.869Z,100875.88
2023-05-13T22:37:02.334Z,100878.53
2023-05-13T22:39:31.376Z,100866.91
2023-05-13T22:42:00.484Z,100865.22
2023-05-13T22:44:29.221Z,100866.06
2023-05-13T22:46:58.383Z,100862.56
2023-05-13T22:49:27.154Z,100863.53
2023-05-13T22:51:56.199Z,100854.59
2023-05-13T22:54:25.024Z,100858.09
2023-05-13T22:56:54.184Z,100859.06
2023-05-13T22:59:23.047Z,100850.22
2023-05-13T23:01:52.295Z,100844.88
2023-05-13T23:04:21.149Z,100840.56
2023-05-13T23:06:50.216Z,100823.41
2023-05-13T23:09:19.111Z,100831.56
2023-05-13T23:11:48.667Z,100827.25
2023-05-13T23:14:17.431Z,100819.25
2023-05-13T23:16:46.593Z,100822.03
2023-05-13T23:19:15.339Z,100817.53
2023-05-13T23:21:44.510Z,100813.09
2023-05-13T23:24:13.171Z,100809.56
2023-05-13T23:26:44.738Z,100810.44
2023-05-13T23:29:15.237Z,100805.94
2023-05-13T23:31:44.355Z,100793.75
2023-05-13T23:34:13.072Z,100795.28
2023-05-13T23:36:42.090Z,100796.41
2023-05-13T23:39:10.752Z,100802.44
2023-05-13T23:41:40.373Z,100789.38
2023-05-13T23:44:09.083Z,100786.13
2023-05-13T23:46:38.154Z,100790.38
2023-05-13T23:49:06.837Z,100785.88
2023-05-13T23:51:35.973Z,100784.88
2023-05-13T23:54:04.747Z,100780.53
2023-05-13T23:56:34.337Z,100772.94
2023-05-13T23:59:03.074Z,100778.72
